createdAt,value
2018-05-07T00:01:05.415Z,101542.81
2018-05-07T00:03:31.293Z,101547.62
2018-05-07T00:05:57.381Z,101546.48
2018-05-07T00:08:23.298Z,101542.41
2018-05-07T00:10:49.292Z,101539.02
2018-05-07T00:13:15.244Z,101539.75
2018-05-07T00:15:41.246Z,101534.80
2018-05-07T00:18:07.152Z,101533.14
2018-05-07T00:20:33.170Z,101536.95
2018-05-07T00:22:59.121Z,101535.70
2018-05-07T00:25:25.069Z,101537.30
2018-05-07T00:27:51.025Z,101535.12
2018-05-07T00:30:16.974Z,101533.34
2018-05-07T00:32:42.952Z,101527.64
2018-05-07T00:35:08.900Z,101529.72
2018-05-07T00:37:34.922Z,101529.86
2018-05-07T00:40:00.846Z,101528.12
2018-05-07T00:42:26.790Z,101525.83
2018-05-07T00:44:52.806Z,101524.72
2018-05-07T00:47:18.760Z,101523.10
2018-05-07T00:49:44.725Z,101530.23
2018-05-07T00:52:10.749Z,101530.11
2018-05-07T00:54:36.740Z,101524.50
2018-05-07T00:57:02.698Z,101523.30
2018-05-07T00:59:28.663Z,101523.81
2018-05-07T01:01:54.613Z,101519.50
2018-05-07T01:04:20.575Z,101523.89
2018-05-07T01:06:46.636Z,101527.50
2018-05-07T01:09:12.580Z,101527.09
2018-05-07T01:11:38.531Z,101528.19
2018-05-07T01:14:04.484Z,101525.63
2018-05-07T01:16:30.470Z,101528.27
2018-05-07T01:18:56.452Z,101527.90
2018-05-07T01:21:22.548Z,101531.17
2018-05-07T01:23:48.492Z,101535.14
2018-05-07T01:26:14.440Z,101535.30
2018-05-07T01:28:40.417Z,101535.30
2018-05-07T01:31:06.390Z,101533.48
2018-05-07T01:33:32.335Z,101534.27
2018-05-07T01:35:58.286Z,101532.97
2018-05-07T01:38:24.253Z,101541.90
2018-05-07T01:40:50.204Z,101538.69
2018-05-07T01:43:16.174Z,101528.52
2018-05-07T01:45:42.136Z,101528.86
2018-05-07T01:48:08.111Z,101529.77
2018-05-07T01:50:34.079Z,101531.03
2018-05-07T01:53:03.532Z,101527.90
2018-05-07T01:55:29.503Z,101523.73
2018-05-07T01:57:55.462Z,101522.42
2018-05-07T02:00:21.444Z,101522.27
2018-05-07T02:02:47.467Z,101521.64
2018-05-07T02:05:13.391Z,101520.58
2018-05-07T02:07:39.379Z,101519.26
2018-05-07T02:10:05.341Z,101519.62
2018-05-07T02:12:31.318Z,101513.78
2018-05-07T02:14:57.304Z,101515.47
2018-05-07T02:17:23.243Z,101515.67
2018-05-07T02:19:49.200Z,101515.31
2018-05-07T02:22:15.170Z,101514.48
2018-05-07T02:24:41.119Z,101517.41
2018-05-07T02:27:07.069Z,101512.31
2018-05-07T02:29:33.052Z,101519.69
2018-05-07T02:31:59.036Z,101518.17
2018-05-07T02:34:24.997Z,101517.67
2018-05-07T02:36:50.933Z,101514.62
2018-05-07T02:39:16.908Z,101516.08
2018-05-07T02:41:42.856Z,101519.44
2018-05-07T02:44:08.823Z,101520.88
2018-05-07T02:46:34.778Z,101519.92
2018-05-07T02:49:00.750Z,101513.05
2018-05-07T02:51:26.696Z,101510.38
2018-05-07T02:53:52.647Z,101511.28
2018-05-07T02:56:18.625Z,101509.06
2018-05-07T02:58:44.572Z,101512.95
2018-05-07T03:01:10.530Z,101509.35
2018-05-07T03:03:36.491Z,101506.75
2018-05-07T03:06:02.453Z,101512.27
2018-05-07T03:08:28.413Z,101504.82
2018-05-07T03:10:54.374Z,101507.66
2018-05-07T03:13:20.357Z,101506.73
2018-05-07T03:15:46.330Z,101500.97
2018-05-07T03:18:12.285Z,101507.55
2018-05-07T03:20:38.242Z,101501.50
2018-05-07T03:23:04.185Z,101502.61
2018-05-07T03:25:30.142Z,101500.67
2018-05-07T03:27:56.101Z,101495.64
2018-05-07T03:30:22.032Z,101495.35
2018-05-07T03:32:47.998Z,101502.64
2018-05-07T03:35:13.956Z,101502.79
2018-05-07T03:37:40.017Z,101501.13
2018-05-07T03:40:05.971Z,101506.41
2018-05-07T03:42:31.927Z,101494.83
2018-05-07T03:44:57.886Z,101494.81
2018-05-07T03:47:23.839Z,101489.97
2018-05-07T03:49:49.793Z,101481.31
2018-05-07T03:52:15.756Z,101484.36
2018-05-07T03:54:41.705Z,101480.89
2018-05-07T03:57:07.660Z,101479.98
2018-05-07T03:59:33.633Z,101478.30
2018-05-07T04:01:59.613Z,101475.45
2018-05-07T04:04:25.558Z,101479.47
2018-05-07T04:06:51.532Z,101473.23
2018-05-07T04:09:17.501Z,101469.02
2018-05-07T04:11:43.495Z,101473.70
2018-05-07T04:14:09.438Z,101473.01
2018-05-07T04:16:35.404Z,101465.74
2018-05-07T04:19:01.371Z,101468.38
2018-05-07T04:21:27.328Z,101475.41
2018-05-07T04:23:53.302Z,101471.23
2018-05-07T04:26:19.248Z,101473.91
2018-05-07T04:28:45.223Z,101480.19
2018-05-07T04:31:11.180Z,101478.03
2018-05-07T04:33:37.190Z,101475.44
2018-05-07T04:36:03.111Z,101480.72
2018-05-07T04:38:29.065Z,101483.19
2018-05-07T04:40:55.016Z,101477.76
2018-05-07T04:43:20.994Z,101478.30
2018-05-07T04:45:46.944Z,101472.12
2018-05-07T04:48:12.916Z,101474.68
2018-05-07T04:50:38.908Z,101476.12
2018-05-07T04:53:04.876Z,101472.05
2018-05-07T04:55:30.842Z,101476.42
2018-05-07T04:57:56.813Z,101482.21
2018-05-07T05:00:22.774Z,101479.77
2018-05-07T05:02:48.722Z,101479.06
2018-05-07T05:05:14.678Z,101480.87
2018-05-07T05:07:40.674Z,101478.38
2018-05-07T05:10:06.632Z,101479.00
2018-05-07T05:12:32.613Z,101480.89
2018-05-07T05:14:58.572Z,101476.95
2018-05-07T05:17:24.578Z,101480.67
2018-05-07T05:19:50.564Z,101477.90
2018-05-07T05:22:16.536Z,101477.42
2018-05-07T05:24:42.573Z,101479.57
2018-05-07T05:27:08.555Z,101482.97
2018-05-07T05:29:34.539Z,101482.43
2018-05-07T05:32:00.526Z,101480.81
2018-05-07T05:34:26.497Z,101481.72
2018-05-07T05:36:52.485Z,101480.19
2018-05-07T05:39:18.487Z,101474.98
2018-05-07T05:41:44.428Z,101473.89
2018-05-07T05:44:10.390Z,101474.82
2018-05-07T05:46:39.798Z,101476.33
2018-05-07T05:49:05.747Z,101476.42
2018-05-07T05:51:31.788Z,101477.42
2018-05-07T05:53:57.746Z,101476.55
2018-05-07T05:56:23.901Z,101470.36
2018-05-07T05:58:49.777Z,101473.01
2018-05-07T06:01:15.782Z,101474.78
2018-05-07T06:03:41.814Z,101478.88
2018-05-07T06:06:07.826Z,101477.27
2018-05-07T06:08:33.788Z,101478.05
2018-05-07T06:10:59.745Z,101483.34
2018-05-07T06:13:25.709Z,101483.06
2018-05-07T06:15:51.666Z,101486.97
2018-05-07T06:18:17.620Z,101485.81
2018-05-07T06:20:43.578Z,101488.59
2018-05-07T06:23:09.553Z,101485.63
2018-05-07T06:25:35.502Z,101484.55
2018-05-07T06:28:01.446Z,101489.78
2018-05-07T06:30:27.425Z,101488.70
2018-05-07T06:32:53.438Z,101492.95
2018-05-07T06:35:19.409Z,101495.60
2018-05-07T06:37:45.387Z,101491.72
2018-05-07T06:40:11.336Z,101484.54
2018-05-07T06:42:37.285Z,101481.44
2018-05-07T06:45:03.240Z,101476.98
2018-05-07T06:47:29.197Z,101477.17
2018-05-07T06:49:55.162Z,101476.27
2018-05-07T06:52:21.135Z,101475.44
2018-05-07T06:54:47.076Z,101477.17
2018-05-07T06:57:15.187Z,101476.92
2018-05-07T06:59:42.023Z,101474.15
2018-05-07T07:02:08.049Z,101471.09
2018-05-07T07:04:33.968Z,101478.27
2018-05-07T07:06:59.984Z,101472.15
2018-05-07T07:09:26.041Z,101468.73
2018-05-07T07:11:51.996Z,101474.86
2018-05-07T07:14:17.990Z,101470.40
2018-05-07T07:16:43.961Z,101470.35
2018-05-07T07:19:09.944Z,101475.64
2018-05-07T07:21:35.915Z,101470.49
2018-05-07T07:24:01.897Z,101470.41
2018-05-07T07:26:27.917Z,101457.98
2018-05-07T07:28:53.955Z,101470.35
2018-05-07T07:31:19.981Z,101462.12
2018-05-07T07:33:46.033Z,101466.09
2018-05-07T07:36:11.969Z,101467.30
2018-05-07T07:38:37.935Z,101474.75
2018-05-07T07:41:03.901Z,101472.81
2018-05-07T07:43:29.841Z,101467.64
2018-05-07T07:45:55.825Z,101473.77
2018-05-07T07:48:21.795Z,101464.80
2018-05-07T07:50:47.759Z,101466.20
2018-05-07T07:53:13.716Z,101465.91
2018-05-07T07:55:39.688Z,101459.44
2018-05-07T07:58:05.647Z,101456.67
2018-05-07T08:00:31.611Z,101459.64
2018-05-07T08:02:57.571Z,101459.93
2018-05-07T08:05:23.525Z,101457.99
2018-05-07T08:07:49.501Z,101460.30
2018-05-07T08:10:15.452Z,101456.10
2018-05-07T08:12:41.420Z,101452.62
2018-05-07T08:15:07.368Z,101455.56
2018-05-07T08:17:33.333Z,101452.80
2018-05-07T08:19:59.308Z,101448.13
2018-05-07T08:22:25.265Z,101447.91
2018-05-07T08:24:51.306Z,101451.80
2018-05-07T08:27:17.265Z,101445.11
2018-05-07T08:29:43.217Z,101447.92
2018-05-07T08:32:09.179Z,101453.91
2018-05-07T08:34:35.132Z,101449.25
2018-05-07T08:37:01.095Z,101445.83
2018-05-07T08:39:27.068Z,101446.09
2018-05-07T08:41:53.017Z,101444.72
2018-05-07T08:44:18.964Z,101442.70
2018-05-07T08:46:44.937Z,101443.55
2018-05-07T08:49:10.891Z,101439.36
2018-05-07T08:51:36.853Z,101435.31
2018-05-07T08:54:02.801Z,101437.96
2018-05-07T08:56:28.741Z,101440.19
2018-05-07T08:58:54.693Z,101436.27
2018-05-07T09:01:20.663Z,101427.19
2018-05-07T09:03:46.645Z,101429.63
2018-05-07T09:06:12.606Z,101432.11
2018-05-07T09:08:38.636Z,101427.73
2018-05-07T09:11:04.603Z,101424.25
2018-05-07T09:13:30.581Z,101418.05
2018-05-07T09:15:56.538Z,101415.28
2018-05-07T09:18:22.476Z,101416.81
2018-05-07T09:20:48.427Z,101417.64
2018-05-07T09:23:14.386Z,101406.78
2018-05-07T09:25:40.378Z,101414.38
2018-05-07T09:28:06.342Z,101395.98
2018-05-07T09:30:32.316Z,101395.59
2018-05-07T09:32:59.293Z,101394.47
2018-05-07T09:35:25.364Z,101391.20
2018-05-07T09:37:51.365Z,101397.94
2018-05-07T09:40:17.387Z,101389.26
2018-05-07T09:42:43.379Z,101382.73
2018-05-07T09:45:09.338Z,101380.91
2018-05-07T09:47:35.317Z,101384.17
2018-05-07T09:50:01.327Z,101377.69
2018-05-07T09:52:27.324Z,101374.79
2018-05-07T09:54:53.274Z,101368.38
2018-05-07T09:57:19.230Z,101373.38
2018-05-07T09:59:45.201Z,101363.22
2018-05-07T10:02:11.167Z,101365.74
2018-05-07T10:04:37.148Z,101355.01
2018-05-07T10:07:03.093Z,101360.79
2018-05-07T10:09:29.145Z,101353.19
2018-05-07T10:11:55.096Z,101349.89
2018-05-07T10:14:21.050Z,101346.83
2018-05-07T10:16:47.013Z,101345.22
2018-05-07T10:19:14.070Z,101343.61
2018-05-07T10:21:40.029Z,101346.13
2018-05-07T10:24:06.075Z,101346.13
2018-05-07T10:26:31.961Z,101343.61
2018-05-07T10:28:57.928Z,101341.87
2018-05-07T10:31:23.924Z,101343.81
2018-05-07T10:33:49.873Z,101339.23
2018-05-07T10:36:15.874Z,101342.50
2018-05-07T10:38:41.826Z,101337.63
2018-05-07T10:41:07.780Z,101334.70
2018-05-07T10:43:33.747Z,101331.63
2018-05-07T10:45:59.699Z,101328.37
2018-05-07T10:48:28.785Z,101330.73
2018-05-07T10:50:54.738Z,101326.42
2018-05-07T10:53:20.725Z,101320.02
2018-05-07T10:55:46.692Z,101317.38
2018-05-07T10:58:12.645Z,101311.55
2018-05-07T11:00:38.632Z,101310.84
2018-05-07T11:03:04.702Z,101307.73
2018-05-07T11:05:30.711Z,101301.92
2018-05-07T11:07:56.666Z,101301.59
2018-05-07T11:10:22.652Z,101297.47
2018-05-07T11:12:48.627Z,101290.66
2018-05-07T11:15:14.592Z,101289.54
2018-05-07T11:17:40.564Z,101291.78
2018-05-07T11:20:06.522Z,101287.05
2018-05-07T11:22:32.503Z,101288.51
2018-05-07T11:24:58.467Z,101284.54
2018-05-07T11:27:24.441Z,101281.89
2018-05-07T11:29:50.427Z,101273.42
2018-05-07T11:32:16.413Z,101280.08
2018-05-07T11:34:42.564Z,101276.81
2018-05-07T11:37:08.623Z,101271.32
2018-05-07T11:39:34.588Z,101269.59
2018-05-07T11:42:00.566Z,101268.76
2018-05-07T11:44:26.525Z,101269.66
2018-05-07T11:46:52.485Z,101266.81
2018-05-07T11:49:18.466Z,101265.62
2018-05-07T11:51:44.448Z,101271.32
2018-05-07T11:54:10.407Z,101268.83
2018-05-07T11:56:36.375Z,101259.91
2018-05-07T11:59:02.337Z,101258.10
2018-05-07T12:01:28.325Z,101250.37
2018-05-07T12:03:54.294Z,101250.59
2018-05-07T12:06:20.253Z,101253.39
2018-05-07T12:08:46.200Z,101250.87
2018-05-07T12:11:12.165Z,101243.06
2018-05-07T12:13:38.133Z,101241.33
2018-05-07T12:16:04.115Z,101241.33
2018-05-07T12:18:30.142Z,101241.95
2018-05-07T12:20:56.108Z,101237.95
2018-05-07T12:23:22.114Z,101235.50
2018-05-07T12:25:48.058Z,101234.19
2018-05-07T12:28:14.021Z,101230.71
2018-05-07T12:30:40.032Z,101228.89
2018-05-07T12:33:06.016Z,101221.88
2018-05-07T12:35:31.989Z,101219.36
2018-05-07T12:37:57.959Z,101217.08
2018-05-07T12:40:23.935Z,101214.90
2018-05-07T12:42:49.905Z,101209.36
2018-05-07T12:45:15.867Z,101208.66
2018-05-07T12:47:41.856Z,101199.44
2018-05-07T12:50:07.796Z,101198.63
2018-05-07T12:52:33.768Z,101194.03
2018-05-07T12:54:59.764Z,101186.39
2018-05-07T12:57:25.803Z,101182.14
2018-05-07T12:59:51.772Z,101191.27
2018-05-07T13:02:17.745Z,101176.97
2018-05-07T13:04:43.708Z,101178.30
2018-05-07T13:07:09.650Z,101170.73
2018-05-07T13:09:35.632Z,101171.36
2018-05-07T13:12:01.597Z,101168.69
2018-05-07T13:14:27.539Z,101165.23
2018-05-07T13:16:53.510Z,101165.37
2018-05-07T13:19:19.484Z,101163.42
2018-05-07T13:21:45.469Z,101163.95
2018-05-07T13:24:11.456Z,101158.00
2018-05-07T13:26:37.430Z,101146.22
2018-05-07T13:29:03.438Z,101149.61
2018-05-07T13:31:29.393Z,101147.31
2018-05-07T13:33:55.369Z,101139.88
2018-05-07T13:36:21.325Z,101142.11
2018-05-07T13:38:47.280Z,101134.18
2018-05-07T13:41:13.253Z,101134.79
2018-05-07T13:43:39.207Z,101130.28
2018-05-07T13:46:05.172Z,101131.35
2018-05-07T13:48:31.152Z,101119.20
2018-05-07T13:50:57.106Z,101115.24
2018-05-07T13:53:23.074Z,101114.91
2018-05-07T13:55:49.030Z,101111.95
2018-05-07T13:58:14.977Z,101111.78
2018-05-07T14:00:40.983Z,101108.16
2018-05-07T14:03:06.961Z,101109.61
2018-05-07T14:05:32.913Z,101106.44
2018-05-07T14:07:58.862Z,101098.75
2018-05-07T14:10:28.202Z,101095.86
2018-05-07T14:12:54.222Z,101089.71
2018-05-07T14:15:20.172Z,101083.74
2018-05-07T14:17:46.124Z,101076.44
2018-05-07T14:20:12.116Z,101076.38
2018-05-07T14:22:38.076Z,101066.71
2018-05-07T14:25:04.049Z,101065.88
2018-05-07T14:27:30.005Z,101066.30
2018-05-07T14:29:55.977Z,101064.28
2018-05-07T14:32:21.935Z,101068.58
2018-05-07T14:34:47.972Z,101069.39
2018-05-07T14:37:13.931Z,101064.37
2018-05-07T14:39:39.884Z,101064.89
2018-05-07T14:42:05.826Z,101057.94
2018-05-07T14:44:31.775Z,101045.89
2018-05-07T14:46:57.752Z,101047.84
2018-05-07T14:49:23.707Z,101045.64
2018-05-07T14:51:49.704Z,101051.54
2018-05-07T14:54:15.651Z,101044.77
2018-05-07T14:56:41.612Z,101043.33
2018-05-07T14:59:07.591Z,101046.03
2018-05-07T15:01:33.530Z,101038.62
2018-05-07T15:03:59.523Z,101036.95
2018-05-07T15:06:25.496Z,101025.73
2018-05-07T15:08:51.490Z,101031.57
2018-05-07T15:11:17.444Z,101025.80
2018-05-07T15:13:43.412Z,101028.98
2018-05-07T15:16:09.351Z,101019.23
2018-05-07T15:18:35.314Z,101020.45
2018-05-07T15:21:01.284Z,101019.31
2018-05-07T15:23:27.294Z,101017.37
2018-05-07T15:25:53.242Z,101014.91
2018-05-07T15:28:19.217Z,101009.41
2018-05-07T15:30:45.175Z,101011.91
2018-05-07T15:33:11.121Z,101011.69
2018-05-07T15:35:37.104Z,101005.55
2018-05-07T15:38:03.049Z,100998.01
2018-05-07T15:40:29.015Z,100997.34
2018-05-07T15:42:55.054Z,100993.59
2018-05-07T15:45:20.996Z,100998.53
2018-05-07T15:47:46.937Z,100994.17
2018-05-07T15:50:12.911Z,100988.28
2018-05-07T15:52:38.858Z,100991.03
2018-05-07T15:55:04.845Z,100991.48
2018-05-07T15:57:30.802Z,100992.89
2018-05-07T15:59:56.788Z,100987.89
2018-05-07T16:02:22.754Z,100983.73
2018-05-07T16:04:48.699Z,100984.48
2018-05-07T16:07:14.658Z,100975.39
2018-05-07T16:09:40.613Z,100978.84
2018-05-07T16:12:06.583Z,100969.63
2018-05-07T16:14:32.543Z,100969.83
2018-05-07T16:16:59.599Z,100976.88
2018-05-07T16:19:25.568Z,100968.78
2018-05-07T16:21:51.614Z,100976.99
2018-05-07T16:24:17.474Z,100963.49
2018-05-07T16:26:43.431Z,100966.41
2018-05-07T16:29:09.453Z,100960.80
2018-05-07T16:31:35.420Z,100956.14
2018-05-07T16:34:01.416Z,100954.48
2018-05-07T16:36:27.383Z,100949.23
2018-05-07T16:38:53.349Z,100949.81
2018-05-07T16:41:19.309Z,100942.92
2018-05-07T16:43:45.281Z,100941.33
2018-05-07T16:46:11.237Z,100944.55
2018-05-07T16:48:37.358Z,100942.67
2018-05-07T16:51:03.295Z,100941.34
2018-05-07T16:53:29.324Z,100938.05
2018-05-07T16:55:55.462Z,100943.75
2018-05-07T16:58:21.354Z,100943.36
2018-05-07T17:00:47.322Z,100938.95
2018-05-07T17:03:13.312Z,100936.73
2018-05-07T17:05:39.270Z,100937.64
2018-05-07T17:08:05.288Z,100938.24
2018-05-07T17:10:31.238Z,100945.13
2018-05-07T17:12:57.204Z,100935.70
2018-05-07T17:15:23.165Z,100932.15
2018-05-07T17:17:49.128Z,100931.83
2018-05-07T17:20:15.119Z,100926.89
2018-05-07T17:22:41.105Z,100922.70
2018-05-07T17:25:07.065Z,100921.16
2018-05-07T17:27:33.025Z,100920.66
2018-05-07T17:29:59.077Z,100920.01
2018-05-07T17:32:24.957Z,100920.66
2018-05-07T17:34:50.907Z,100922.89
2018-05-07T17:37:16.925Z,100924.63
2018-05-07T17:39:42.865Z,100920.03
2018-05-07T17:42:08.819Z,100914.41
2018-05-07T17:44:34.826Z,100920.66
2018-05-07T17:47:00.800Z,100920.66
2018-05-07T17:49:26.786Z,100921.84
2018-05-07T17:51:52.734Z,100923.17
2018-05-07T17:54:18.705Z,100921.98
2018-05-07T17:56:44.694Z,100916.70
2018-05-07T17:59:10.642Z,100916.47
2018-05-07T18:01:36.620Z,100919.06
2018-05-07T18:04:02.595Z,100919.52
2018-05-07T18:06:28.590Z,100913.91
2018-05-07T18:08:54.588Z,100920.52
2018-05-07T18:11:20.551Z,100917.33
2018-05-07T18:13:46.549Z,100924.22
2018-05-07T18:16:12.506Z,100918.79
2018-05-07T18:18:38.506Z,100921.70
2018-05-07T18:21:04.479Z,100919.48
2018-05-07T18:23:30.454Z,100923.33
2018-05-07T18:25:59.549Z,100919.30
2018-05-07T18:28:25.577Z,100921.93
2018-05-07T18:30:51.524Z,100916.80
2018-05-07T18:33:18.567Z,100915.15
2018-05-07T18:35:48.881Z,100916.23
2018-05-07T18:38:14.848Z,100915.51
2018-05-07T18:40:40.836Z,100916.47
2018-05-07T18:43:06.806Z,100917.38
2018-05-07T18:45:32.795Z,100925.09
2018-05-07T18:47:58.771Z,100921.27
2018-05-07T18:50:24.731Z,100925.70
2018-05-07T18:52:50.727Z,100920.09
2018-05-07T18:55:16.709Z,100922.26
2018-05-07T18:57:42.676Z,100925.16
2018-05-07T19:00:08.634Z,100924.40
2018-05-07T19:02:34.590Z,100927.86
2018-05-07T19:05:00.540Z,100933.13
2018-05-07T19:07:26.611Z,100929.38
2018-05-07T19:09:52.575Z,100937.73
2018-05-07T19:12:18.545Z,100934.31
2018-05-07T19:14:44.533Z,100934.52
2018-05-07T19:17:10.510Z,100936.38
2018-05-07T19:19:36.481Z,100934.36
2018-05-07T19:22:02.453Z,100939.47
2018-05-07T19:24:28.452Z,100941.20
2018-05-07T19:26:54.415Z,100941.53
2018-05-07T19:29:20.385Z,100938.78
2018-05-07T19:31:46.355Z,100946.70
2018-05-07T19:34:12.312Z,100942.83
2018-05-07T19:36:38.348Z,100946.56
2018-05-07T19:39:05.350Z,100941.87
2018-05-07T19:41:31.343Z,100946.06
2018-05-07T19:43:57.288Z,100948.66
2018-05-07T19:46:23.263Z,100953.14
2018-05-07T19:48:49.224Z,100951.31
2018-05-07T19:51:15.201Z,100946.56
2018-05-07T19:53:41.158Z,100950.20
2018-05-07T19:56:07.114Z,100953.26
2018-05-07T19:58:33.122Z,100953.39
2018-05-07T20:00:59.072Z,100956.21
2018-05-07T20:03:25.033Z,100955.72
2018-05-07T20:05:51.079Z,100957.45
2018-05-07T20:08:16.972Z,100954.66
2018-05-07T20:10:42.939Z,100957.63
2018-05-07T20:13:08.915Z,100950.66
2018-05-07T20:15:36.905Z,100956.37
2018-05-07T20:18:02.871Z,100955.26
2018-05-07T20:20:28.829Z,100955.59
2018-05-07T20:22:54.784Z,100956.95
2018-05-07T20:25:20.741Z,100960.37
2018-05-07T20:27:46.820Z,100965.63
2018-05-07T20:30:12.839Z,100964.44
2018-05-07T20:32:39.861Z,100962.30
2018-05-07T20:35:05.815Z,100960.70
2018-05-07T20:37:31.776Z,100965.24
2018-05-07T20:39:57.729Z,100958.95
2018-05-07T20:42:23.761Z,100970.31
2018-05-07T20:44:49.733Z,100959.06
2018-05-07T20:47:15.690Z,100955.73
2018-05-07T20:49:41.674Z,100967.13
2018-05-07T20:52:07.598Z,100967.00
2018-05-07T20:54:33.555Z,100966.78
2018-05-07T20:56:59.565Z,100967.36
2018-05-07T20:59:25.618Z,100968.95
2018-05-07T21:01:51.499Z,100964.08
2018-05-07T21:04:17.450Z,100967.99
2018-05-07T21:06:43.397Z,100965.84
2018-05-07T21:09:09.366Z,100958.59
2018-05-07T21:11:35.371Z,100963.61
2018-05-07T21:14:01.426Z,100964.34
2018-05-07T21:16:27.380Z,100965.58
2018-05-07T21:18:53.344Z,100962.79
2018-05-07T21:21:19.377Z,100969.05
2018-05-07T21:23:47.280Z,100962.63
2018-05-07T21:26:13.240Z,100970.91
2018-05-07T21:28:39.215Z,100969.73
2018-05-07T21:31:05.172Z,100965.77
2018-05-07T21:33:31.364Z,100969.87
2018-05-07T21:35:57.363Z,100970.36
2018-05-07T21:38:23.316Z,100966.98
2018-05-07T21:40:49.278Z,100975.61
2018-05-07T21:43:15.245Z,100971.55
2018-05-07T21:45:41.210Z,100970.73
2018-05-07T21:48:07.180Z,100974.61
2018-05-07T21:50:33.157Z,100976.34
2018-05-07T21:52:59.163Z,100965.27
2018-05-07T21:55:25.102Z,100967.41
2018-05-07T21:57:51.093Z,100967.99
2018-05-07T22:00:17.048Z,100967.41
2018-05-07T22:02:43.074Z,100967.91
2018-05-07T22:05:09.002Z,100964.53
2018-05-07T22:07:34.975Z,100966.17
2018-05-07T22:10:00.925Z,100967.16
2018-05-07T22:12:26.933Z,100962.84
2018-05-07T22:14:52.884Z,100960.01
2018-05-07T22:17:18.840Z,100966.38
2018-05-07T22:19:44.820Z,100966.48
2018-05-07T22:22:10.802Z,100973.13
2018-05-07T22:24:36.756Z,100969.11
2018-05-07T22:27:02.696Z,100972.52
2018-05-07T22:29:28.663Z,100978.33
2018-05-07T22:31:54.612Z,100971.58
2018-05-07T22:34:20.576Z,100973.67
2018-05-07T22:36:46.547Z,100974.53
2018-05-07T22:39:12.548Z,100974.45
2018-05-07T22:41:38.474Z,100976.77
2018-05-07T22:44:04.440Z,100980.73
2018-05-07T22:46:30.411Z,100974.95
2018-05-07T22:48:56.438Z,100977.02
2018-05-07T22:51:22.336Z,100978.50
2018-05-07T22:53:48.320Z,100976.41
2018-05-07T22:56:14.280Z,100971.48
2018-05-07T22:58:40.297Z,100975.22
2018-05-07T23:01:06.240Z,100972.94
2018-05-07T23:03:32.192Z,100967.05
2018-05-07T23:05:58.148Z,100966.02
2018-05-07T23:08:24.107Z,100970.57
2018-05-07T23:10:50.082Z,100966.47
2018-05-07T23:13:16.049Z,100963.08
2018-05-07T23:15:41.984Z,100957.86
2018-05-07T23:18:07.948Z,100960.01
2018-05-07T23:20:33.916Z,100956.64
2018-05-07T23:22:59.867Z,100959.05
2018-05-07T23:25:25.899Z,100957.95
2018-05-07T23:27:51.852Z,100959.05
2018-05-07T23:30:17.813Z,100959.81
2018-05-07T23:32:43.790Z,100960.73
2018-05-07T23:35:09.745Z,100960.17
2018-05-07T23:37:35.709Z,100958.86
2018-05-07T23:40:01.703Z,100956.77
2018-05-07T23:42:27.641Z,100955.75
2018-05-07T23:44:53.628Z,100958.48
2018-05-07T23:47:19.574Z,100947.41
2018-05-07T23:49:45.536Z,100943.20
2018-05-07T23:52:11.502Z,100940.06
2018-05-07T23:54:37.457Z,100946.59
2018-05-07T23:57:03.428Z,100945.05
2018-05-07T23:59:29.400Z,100941.91
